Time;durP1;ratioP1;P1;durP2;ratioP2;P2;SDS_P1;SDS_P2;PMS_P1;PMS_P2;Temp;Humidity;BMP_temperature;BMP_pressure;BME280_temperature;BME280_humidity;BME280_pressure;Samples;Min_cycle;Max_cycle;Signal;HPM_P1;HPM_P2
2021/04/21 00:00:47;;;;;;;16.13;10.47;;;7.60;99.90;;;;;;4222504;28;20494;-65
2021/04/21 00:02:51;;;;;;;14.60;10.10;;;7.70;99.90;;;;;;4222578;28;20027;-68
2021/04/21 00:04:54;;;;;;;16.10;10.73;;;7.70;99.90;;;;;;4222404;28;20507;-67
2021/04/21 00:07:00;;;;;;;18.70;11.70;;;7.80;99.90;;;;;;4222472;28;20044;-67
2021/04/21 00:09:04;;;;;;;19.73;12.33;;;7.80;99.90;;;;;;4227884;28;20020;-68
2021/04/21 00:11:07;;;;;;;16.63;11.10;;;7.90;99.90;;;;;;4239200;28;20031;-67
2021/04/21 00:13:10;;;;;;;19.20;12.37;;;7.90;99.90;;;;;;4228942;28;20031;-64
2021/04/21 00:15:14;;;;;;;19.80;13.70;;;8.00;99.90;;;;;;4222628;28;20051;-67
2021/04/21 00:17:17;;;;;;;22.47;13.37;;;8.00;99.90;;;;;;4222498;28;20048;-65
2021/04/21 00:19:20;;;;;;;28.90;16.77;;;8.00;99.90;;;;;;4225865;28;20039;-67
2021/04/21 00:21:23;;;;;;;19.93;13.13;;;8.00;99.90;;;;;;4238062;27;20047;-65
2021/04/21 00:23:26;;;;;;;35.17;20.13;;;8.00;99.90;;;;;;4239616;27;20449;-63
2021/04/21 00:25:31;;;;;;;33.27;19.17;;;8.00;99.90;;;;;;4239556;27;20092;-65
2021/04/21 00:27:33;;;;;;;30.97;17.97;;;8.00;99.90;;;;;;4239197;28;20031;-62
2021/04/21 00:29:39;;;;;;;19.00;12.80;;;8.00;99.90;;;;;;4239337;27;20035;-66
2021/04/21 00:31:44;;;;;;;18.93;12.47;;;8.00;99.90;;;;;;4238768;27;20460;-66
2021/04/21 00:33:52;;;;;;;16.07;11.63;;;8.00;99.90;;;;;;4237968;28;20035;-65
2021/04/21 00:35:55;;;;;;;21.77;13.97;;;8.10;99.90;;;;;;4237940;27;20043;-66
2021/04/21 00:38:00;;;;;;;34.77;21.43;;;8.10;99.90;;;;;;4238797;27;20055;-66
2021/04/21 00:40:04;;;;;;;39.07;21.70;;;8.10;99.90;;;;;;4241357;27;20035;-67
2021/04/21 00:42:27;;;;;;;31.90;19.63;;;8.10;99.90;;;;;;4242433;27;20460;-67
2021/04/21 00:44:49;;;;;;;24.77;15.57;;;8.00;99.90;;;;;;4242542;27;20416;-66
2021/04/21 00:46:58;;;;;;;18.80;12.70;;;8.00;99.90;;;;;;4242636;27;20674;-65
2021/04/21 00:49:02;;;;;;;20.03;12.60;;;8.00;99.90;;;;;;4242660;27;20091;-66
2021/04/21 00:51:08;;;;;;;18.87;12.67;;;8.00;99.90;;;;;;4243035;27;20027;-67
2021/04/21 00:53:34;;;;;;;16.20;11.60;;;8.00;99.90;;;;;;4241886;27;20487;-63
2021/04/21 00:55:42;;;;;;;20.63;12.97;;;8.00;99.90;;;;;;4225503;28;20031;-63
2021/04/21 00:58:10;;;;;;;23.23;15.23;;;8.10;99.90;;;;;;4225784;28;20032;-64
2021/04/21 01:00:40;;;;;;;26.33;17.00;;;8.10;99.90;;;;;;4225424;28;20433;-66
2021/04/21 01:02:48;;;;;;;21.02;13.82;;;8.00;99.90;;;;;;4225539;27;20048;-65
2021/04/21 01:04:51;;;;;;;22.43;13.97;;;8.00;99.90;;;;;;4229920;27;20107;-64
2021/04/21 01:06:54;;;;;;;23.87;15.47;;;8.00;99.90;;;;;;4241636;27;20076;-65
2021/04/21 01:08:59;;;;;;;31.83;18.93;;;8.10;99.90;;;;;;4242150;27;20416;-67
2021/04/21 01:11:09;;;;;;;25.03;15.17;;;8.00;99.90;;;;;;4236205;27;20638;-66
2021/04/21 01:13:11;;;;;;;21.27;14.00;;;8.00;99.90;;;;;;4241359;27;20087;-63
2021/04/21 01:15:15;;;;;;;21.27;14.57;;;8.00;99.90;;;;;;4241562;27;20070;-67
2021/04/21 01:17:18;;;;;;;22.67;14.37;;;8.00;99.90;;;;;;4241702;27;20068;-65
2021/04/21 01:19:51;;;;;;;22.90;14.90;;;7.90;99.90;;;;;;4241678;27;20080;-68
2021/04/21 01:21:57;;;;;;;21.63;15.00;;;7.90;99.90;;;;;;4232929;27;20038;-62
2021/04/21 01:24:10;;;;;;;21.70;15.20;;;7.90;99.90;;;;;;4241903;27;20547;-65
2021/04/21 01:26:46;;;;;;;21.53;13.80;;;7.80;99.90;;;;;;4241806;27;20043;-65
2021/04/21 01:28:52;;;;;;;20.97;12.73;;;7.90;99.90;;;;;;4226222;27;20043;-64
2021/04/21 01:30:55;;;;;;;19.37;13.20;;;7.80;99.90;;;;;;4241960;27;20038;-65
2021/04/21 01:33:00;;;;;;;19.03;12.63;;;7.80;99.90;;;;;;4241902;27;20099;-65
2021/04/21 01:35:03;;;;;;;21.13;13.53;;;7.80;99.90;;;;;;4241669;27;20031;-62
2021/04/21 01:37:07;;;;;;;19.67;12.90;;;7.80;99.90;;;;;;4241669;27;20053;-66
2021/04/21 01:39:09;;;;;;;18.60;12.63;;;7.80;99.90;;;;;;4241836;27;20035;-66
2021/04/21 01:41:17;;;;;;;19.97;13.23;;;7.80;99.90;;;;;;4241814;27;20445;-66
2021/04/21 01:43:22;;;;;;;22.10;14.73;;;7.80;99.90;;;;;;4241440;27;20023;-63
2021/04/21 01:45:27;;;;;;;22.90;14.23;;;7.70;99.90;;;;;;4242001;27;20087;-63
2021/04/21 01:47:28;;;;;;;22.80;13.80;;;7.70;99.90;;;;;;4241455;27;20439;-67
2021/04/21 01:49:35;;;;;;;22.70;13.80;;;7.70;99.90;;;;;;4240889;27;20039;-68
2021/04/21 01:51:40;;;;;;;21.07;13.17;;;7.60;99.90;;;;;;4241716;27;20080;-65
2021/04/21 01:53:54;;;;;;;22.20;13.53;;;7.60;99.90;;;;;;4241299;27;20462;-66
2021/04/21 01:56:20;;;;;;;21.17;12.67;;;7.60;99.90;;;;;;4239145;27;20035;-65
2021/04/21 01:58:33;;;;;;;18.03;11.03;;;7.60;99.90;;;;;;4240409;27;20076;-66
2021/04/21 02:00:37;;;;;;;18.17;12.03;;;7.50;99.90;;;;;;4239650;27;20899;-66
2021/04/21 02:02:44;;;;;;;16.37;10.77;;;7.50;99.90;;;;;;4240587;27;20116;-64
2021/04/21 02:05:33;;;;;;;16.63;10.13;;;7.50;99.90;;;;;;4240227;27;20051;-65
2021/04/21 02:07:59;;;;;;;17.80;10.53;;;7.50;99.90;;;;;;4214931;28;20044;-65
2021/04/21 02:10:12;;;;;;;21.20;12.97;;;7.50;99.90;;;;;;4223908;28;20509;-66
2021/04/21 02:12:26;;;;;;;17.73;11.53;;;7.50;99.90;;;;;;4224374;28;20049;-65
2021/04/21 02:15:07;;;;;;;17.87;11.73;;;7.50;99.90;;;;;;4224068;28;21075;-66
2021/04/21 02:17:30;;;;;;;20.98;13.07;;;7.50;99.90;;;;;;4224413;28;20028;-67
2021/04/21 02:19:52;;;;;;;16.93;10.87;;;7.50;99.90;;;;;;4223778;28;20108;-67
2021/04/21 02:22:15;;;;;;;25.30;15.03;;;7.50;99.90;;;;;;4224426;28;20031;-63
2021/04/21 02:24:43;;;;;;;24.03;14.77;;;7.50;99.90;;;;;;4223876;28;20035;-63
2021/04/21 02:27:22;;;;;;;21.30;12.97;;;7.50;99.90;;;;;;4224370;28;20020;-66
2021/04/21 02:29:41;;;;;;;17.90;11.70;;;7.50;99.90;;;;;;4224611;27;20097;-62
2021/04/21 02:32:20;;;;;;;19.80;11.47;;;7.50;99.90;;;;;;4240407;27;20068;-67
2021/04/21 02:35:11;;;;;;;18.40;12.07;;;7.50;99.90;;;;;;4203977;28;20496;-64
2021/04/21 02:37:50;;;;;;;19.77;13.30;;;7.50;99.90;;;;;;4204652;27;20042;-67
2021/04/21 02:39:58;;;;;;;16.53;11.50;;;7.60;99.90;;;;;;4218312;27;20487;-65
2021/04/21 02:42:11;;;;;;;17.50;12.60;;;7.60;99.90;;;;;;4240681;27;20096;-65
2021/04/21 02:44:12;;;;;;;19.27;13.03;;;7.50;99.90;;;;;;4240596;27;20031;-64
2021/04/21 02:46:29;;;;;;;22.00;13.63;;;7.50;99.90;;;;;;4240161;27;20092;-63
2021/04/21 02:48:59;;;;;;;22.13;13.13;;;7.50;99.90;;;;;;4240571;27;20080;-66
2021/04/21 02:51:13;;;;;;;21.73;13.15;;;7.40;99.90;;;;;;4240715;27;20051;-63
2021/04/21 02:53:33;;;;;;;24.07;14.23;;;7.40;99.90;;;;;;4240654;27;20035;-67
2021/04/21 02:56:13;;;;;;;22.88;13.32;;;7.30;99.90;;;;;;4232974;27;20088;-67
2021/04/21 02:58:41;;;;;;;24.60;13.60;;;7.30;99.90;;;;;;4223310;27;20052;-65
2021/04/21 03:01:03;;;;;;;19.37;12.70;;;7.30;99.90;;;;;;4223238;28;20031;-62
2021/04/21 03:03:24;;;;;;;20.43;13.03;;;7.30;99.90;;;;;;4223163;28;20081;-64
2021/04/21 03:05:28;;;;;;;22.77;13.90;;;7.30;99.90;;;;;;4222074;28;20104;-66
2021/04/21 03:07:49;;;;;;;19.53;12.27;;;7.40;99.90;;;;;;4223398;28;20831;-67
2021/04/21 03:09:58;;;;;;;26.10;13.32;;;7.40;99.90;;;;;;4223141;28;20437;-66
2021/04/21 03:12:02;;;;;;;19.17;12.33;;;7.40;99.90;;;;;;4238973;27;20019;-65
2021/04/21 03:14:07;;;;;;;25.43;13.77;;;7.40;99.90;;;;;;4239836;27;20068;-67
2021/04/21 03:16:12;;;;;;;24.10;14.80;;;7.40;99.90;;;;;;4239725;27;20031;-63
2021/04/21 03:18:20;;;;;;;29.17;16.83;;;7.40;99.90;;;;;;4237239;27;20042;-65
2021/04/21 03:20:24;;;;;;;30.30;18.13;;;7.40;99.90;;;;;;4239498;27;20056;-66
2021/04/21 03:22:28;;;;;;;29.50;18.37;;;7.40;99.90;;;;;;4238856;27;20039;-68
2021/04/21 03:24:33;;;;;;;32.07;18.57;;;7.50;99.90;;;;;;4240030;27;20027;-67
2021/04/21 03:26:37;;;;;;;27.93;16.77;;;7.50;99.90;;;;;;4239552;27;20444;-66
2021/04/21 03:28:41;;;;;;;25.27;15.77;;;7.50;99.90;;;;;;4239783;27;20179;-67
2021/04/21 03:30:44;;;;;;;31.00;18.53;;;7.60;99.90;;;;;;4233926;27;20039;-69
2021/04/21 03:33:05;;;;;;;43.53;24.20;;;7.60;99.90;;;;;;4222669;28;20028;-69
2021/04/21 03:35:07;;;;;;;27.20;15.57;;;7.60;99.90;;;;;;4222792;28;20088;-66
2021/04/21 03:37:21;;;;;;;22.80;14.53;;;7.60;99.90;;;;;;4221044;28;20536;-68
2021/04/21 03:39:23;;;;;;;22.53;13.50;;;7.60;99.90;;;;;;4222123;28;20069;-68
2021/04/21 03:41:24;;;;;;;23.97;15.10;;;7.50;99.90;;;;;;4222313;28;20065;-67
2021/04/21 03:43:26;;;;;;;22.17;13.50;;;7.60;99.90;;;;;;4222674;28;20751;-67
2021/04/21 03:45:29;;;;;;;20.53;13.80;;;7.60;99.90;;;;;;4222245;28;20025;-67
2021/04/21 03:47:30;;;;;;;21.03;13.73;;;7.60;99.90;;;;;;4223073;28;20093;-68
2021/04/21 03:49:32;;;;;;;19.50;13.00;;;7.70;99.90;;;;;;4222132;28;20047;-65
2021/04/21 03:51:35;;;;;;;20.97;13.30;;;7.70;99.90;;;;;;4232995;28;20039;-68
2021/04/21 03:53:38;;;;;;;19.30;12.50;;;7.70;99.90;;;;;;4238484;27;20495;-67
2021/04/21 03:55:40;;;;;;;17.93;12.50;;;7.70;99.90;;;;;;4239344;27;20072;-65
2021/04/21 03:57:46;;;;;;;19.33;12.63;;;7.70;99.90;;;;;;4239161;27;20059;-68
2021/04/21 03:59:50;;;;;;;18.47;13.23;;;7.70;99.90;;;;;;4238530;27;20051;-67
2021/04/21 04:01:55;;;;;;;20.73;13.23;;;7.70;99.90;;;;;;4236629;27;20518;-67
2021/04/21 04:03:59;;;;;;;17.20;11.67;;;7.60;99.90;;;;;;4238801;28;20615;-68
2021/04/21 04:06:17;;;;;;;17.13;11.27;;;7.60;99.90;;;;;;4237736;28;20031;-67
2021/04/21 04:08:21;;;;;;;21.67;11.97;;;7.70;99.90;;;;;;4238471;28;20068;-67
2021/04/21 04:10:24;;;;;;;18.60;12.30;;;7.70;99.90;;;;;;4238721;27;20043;-62
2021/04/21 04:12:30;;;;;;;18.47;12.27;;;7.80;99.90;;;;;;4238898;27;20043;-67
2021/04/21 04:14:35;;;;;;;24.80;14.30;;;7.80;99.90;;;;;;4242525;27;20490;-65
2021/04/21 04:16:40;;;;;;;17.77;11.13;;;7.80;99.90;;;;;;4240454;27;20539;-65
2021/04/21 04:18:43;;;;;;;19.67;12.83;;;7.90;99.90;;;;;;4242427;27;20490;-66
2021/04/21 04:20:44;;;;;;;23.63;14.53;;;7.80;99.90;;;;;;4242333;27;20448;-63
2021/04/21 04:22:51;;;;;;;32.47;18.23;;;7.80;99.90;;;;;;4242488;27;20027;-61
2021/04/21 04:24:57;;;;;;;19.73;13.37;;;7.80;99.90;;;;;;4240391;27;20039;-61
2021/04/21 04:27:01;;;;;;;20.80;13.03;;;7.80;99.90;;;;;;4242548;27;20563;-68
2021/04/21 04:29:03;;;;;;;36.93;19.67;;;7.80;99.90;;;;;;4242238;27;20043;-62
2021/04/21 04:31:06;;;;;;;23.23;15.10;;;7.90;99.90;;;;;;4242038;27;20092;-64
2021/04/21 04:33:09;;;;;;;26.00;16.23;;;7.90;99.90;;;;;;4241892;27;20053;-65
2021/04/21 04:35:12;;;;;;;24.33;15.13;;;7.90;99.90;;;;;;4241885;27;20030;-65
2021/04/21 04:37:15;;;;;;;27.50;16.90;;;7.90;99.90;;;;;;4239385;27;20555;-63
2021/04/21 04:39:16;;;;;;;26.63;16.70;;;7.90;99.90;;;;;;4241796;27;20111;-61
2021/04/21 04:41:17;;;;;;;26.07;15.13;;;7.90;99.90;;;;;;4241756;27;20031;-67
2021/04/21 04:43:20;;;;;;;27.40;15.90;;;7.90;99.90;;;;;;4242333;27;20080;-64
2021/04/21 04:45:26;;;;;;;26.77;16.77;;;8.00;99.90;;;;;;4241790;27;20083;-68
2021/04/21 04:47:37;;;;;;;27.33;16.70;;;8.10;99.90;;;;;;4239801;27;20094;-66
2021/04/21 04:49:55;;;;;;;24.93;15.13;;;8.20;99.90;;;;;;4241471;27;20541;-66
2021/04/21 04:52:00;;;;;;;23.63;14.20;;;8.20;99.90;;;;;;4240396;27;20447;-67
2021/04/21 04:54:05;;;;;;;24.73;15.80;;;8.10;99.90;;;;;;4241134;27;20076;-63
2021/04/21 04:56:07;;;;;;;26.70;16.83;;;8.10;99.90;;;;;;4240833;27;20035;-65
2021/04/21 04:58:11;;;;;;;25.93;16.10;;;8.10;99.90;;;;;;4241582;27;20780;-65
2021/04/21 05:00:20;;;;;;;26.10;16.07;;;8.10;99.90;;;;;;4241631;27;20047;-64
2021/04/21 05:02:24;;;;;;;26.30;17.53;;;8.10;99.90;;;;;;4240704;27;20027;-66
2021/04/21 05:04:36;;;;;;;25.80;16.23;;;8.10;99.90;;;;;;4241226;27;20519;-64
2021/04/21 05:06:45;;;;;;;26.57;17.07;;;8.20;99.90;;;;;;4241532;27;20023;-62
2021/04/21 05:08:51;;;;;;;23.80;14.63;;;8.20;99.90;;;;;;4241547;27;20088;-63
2021/04/21 05:10:55;;;;;;;23.43;14.90;;;8.30;99.90;;;;;;4241455;27;20043;-68
2021/04/21 05:13:02;;;;;;;21.10;13.37;;;8.40;99.90;;;;;;4241758;27;20031;-67
2021/04/21 05:15:04;;;;;;;31.80;17.97;;;8.50;99.90;;;;;;4241494;27;20031;-64
2021/04/21 05:17:28;;;;;;;27.00;16.77;;;8.60;99.90;;;;;;4241492;27;20104;-64
2021/04/21 05:19:39;;;;;;;26.57;17.70;;;8.70;99.90;;;;;;4241299;27;20039;-65
2021/04/21 05:22:08;;;;;;;24.40;15.47;;;8.80;99.90;;;;;;4241549;27;20043;-66
2021/04/21 05:24:28;;;;;;;23.87;15.50;;;8.90;99.90;;;;;;4240347;27;20035;-65
2021/04/21 05:26:53;;;;;;;34.93;16.13;;;9.10;99.90;;;;;;4241177;27;20027;-67
2021/04/21 05:29:00;;;;;;;25.03;15.77;;;9.10;99.90;;;;;;4240878;27;20478;-67
2021/04/21 05:31:43;;;;;;;21.03;14.70;;;9.20;99.90;;;;;;4240946;27;20084;-64
2021/04/21 05:34:03;;;;;;;26.20;15.53;;;9.20;99.90;;;;;;4232324;27;20463;-67
2021/04/21 05:36:36;;;;;;;25.42;15.43;;;9.10;99.90;;;;;;4240675;27;20027;-64
2021/04/21 05:39:14;;;;;;;27.30;15.13;;;9.10;99.90;;;;;;4240449;27;20103;-62
2021/04/21 05:41:33;;;;;;;25.80;14.80;;;9.00;99.90;;;;;;4240764;27;20544;-67
2021/04/21 05:43:56;;;;;;;28.00;15.13;;;9.00;99.90;;;;;;4240991;27;20046;-66
2021/04/21 05:46:09;;;;;;;21.87;14.70;;;9.00;99.90;;;;;;4240911;27;20019;-62
2021/04/21 05:48:28;;;;;;;25.97;15.17;;;9.00;99.90;;;;;;4240763;27;20023;-67
2021/04/21 05:50:32;;;;;;;31.03;15.30;;;9.20;99.90;;;;;;4240364;27;20051;-67
2021/04/21 05:53:29;;;;;;;27.27;14.70;;;9.40;99.90;;;;;;4240998;27;20031;-66
2021/04/21 05:55:47;;;;;;;32.60;18.23;;;9.60;99.90;;;;;;4220272;28;20081;-62
2021/04/21 05:58:29;;;;;;;34.10;17.20;;;9.80;99.90;;;;;;4237190;27;20441;-64
2021/04/21 06:00:37;;;;;;;26.73;14.37;;;10.00;99.90;;;;;;4228668;27;20115;-67
2021/04/21 06:02:39;;;;;;;24.43;13.00;;;10.30;99.90;;;;;;4240222;27;20043;-63
2021/04/21 06:04:40;;;;;;;20.70;13.13;;;10.50;99.90;;;;;;4240611;27;20088;-61
2021/04/21 06:06:42;;;;;;;17.40;11.17;;;10.80;99.90;;;;;;4238897;27;20546;-62
2021/04/21 06:08:43;;;;;;;17.30;11.27;;;11.10;99.90;;;;;;4240337;27;20069;-66
2021/04/21 06:10:44;;;;;;;14.93;10.67;;;11.30;99.90;;;;;;4239749;27;20076;-64
2021/04/21 06:12:46;;;;;;;20.97;12.10;;;11.50;99.90;;;;;;4239834;27;20035;-65
2021/04/21 06:14:51;;;;;;;16.80;10.23;;;11.70;99.90;;;;;;4240113;27;20031;-64
2021/04/21 06:16:52;;;;;;;23.53;14.37;;;11.90;99.90;;;;;;4240380;27;20443;-63
2021/04/21 06:19:12;;;;;;;19.40;13.33;;;11.90;99.90;;;;;;4240150;27;20433;-66
2021/04/21 06:21:18;;;;;;;19.07;12.73;;;12.10;99.90;;;;;;4240573;27;20072;-64
2021/04/21 06:23:24;;;;;;;19.53;13.37;;;12.00;99.90;;;;;;4239768;27;20043;-64
2021/04/21 06:25:26;;;;;;;16.23;10.87;;;12.00;99.90;;;;;;4239847;27;20043;-67
2021/04/21 06:27:31;;;;;;;18.37;12.77;;;11.90;99.90;;;;;;4240359;27;20088;-68
2021/04/21 06:29:32;;;;;;;19.23;10.77;;;11.80;99.90;;;;;;4239561;27;20421;-68
2021/04/21 06:31:43;;;;;;;19.07;9.67;;;11.90;99.90;;;;;;4239342;27;20027;-64
2021/04/21 06:33:47;;;;;;;13.23;8.10;;;11.80;99.90;;;;;;4239482;27;20084;-65
2021/04/21 06:35:48;;;;;;;11.17;8.10;;;11.90;99.90;;;;;;4239806;27;20027;-69
2021/04/21 06:37:49;;;;;;;17.10;10.47;;;11.90;99.90;;;;;;4239928;27;20075;-66
2021/04/21 06:39:51;;;;;;;26.07;11.60;;;11.90;99.90;;;;;;4237857;27;20035;-66
2021/04/21 06:42:00;;;;;;;25.93;12.43;;;11.70;99.90;;;;;;4239309;27;20027;-62
2021/04/21 06:44:01;;;;;;;15.03;10.13;;;11.50;99.90;;;;;;4239718;27;20704;-68
2021/04/21 06:46:11;;;;;;;16.83;10.20;;;11.40;99.90;;;;;;4239339;27;20019;-68
2021/04/21 06:48:12;;;;;;;18.50;10.00;;;11.30;99.90;;;;;;4239336;27;20112;-68
2021/04/21 06:50:13;;;;;;;17.77;10.17;;;11.30;99.90;;;;;;4239542;27;20047;-69
2021/04/21 06:52:16;;;;;;;13.23;9.00;;;11.30;99.90;;;;;;4240233;27;20023;-68
2021/04/21 06:54:20;;;;;;;18.70;11.33;;;11.40;99.90;;;;;;4239392;27;20547;-68
2021/04/21 06:56:30;;;;;;;20.37;11.63;;;11.50;99.90;;;;;;4238821;27;20079;-68
2021/04/21 06:58:32;;;;;;;20.40;11.20;;;11.70;99.90;;;;;;4239405;27;20422;-68
2021/04/21 07:00:34;;;;;;;26.90;13.87;;;11.90;99.90;;;;;;4239459;27;20440;-70
2021/04/21 07:02:41;;;;;;;24.30;13.37;;;12.20;99.90;;;;;;4238858;27;20069;-69
2021/04/21 07:04:42;;;;;;;19.67;11.63;;;12.50;99.90;;;;;;4239115;27;20390;-64
2021/04/21 07:06:44;;;;;;;20.57;11.20;;;12.90;99.90;;;;;;4238819;27;20128;-70
2021/04/21 07:08:45;;;;;;;22.83;12.00;;;13.20;99.90;;;;;;4238900;27;20039;-68
2021/04/21 07:10:51;;;;;;;16.77;11.67;;;13.70;99.90;;;;;;4239084;27;20091;-68
2021/04/21 07:12:53;;;;;;;17.03;10.83;;;13.70;99.90;;;;;;4238554;27;20031;-67
2021/04/21 07:14:54;;;;;;;20.90;12.53;;;13.90;99.90;;;;;;4239784;27;20020;-67
2021/04/21 07:16:57;;;;;;;14.40;10.27;;;14.00;99.90;;;;;;4239391;27;20027;-67
2021/04/21 07:19:03;;;;;;;11.20;7.83;;;14.20;99.90;;;;;;4239381;27;20163;-69
2021/04/21 07:21:07;;;;;;;12.53;8.50;;;14.70;99.90;;;;;;4238838;27;20048;-62
2021/04/21 07:23:12;;;;;;;10.43;7.90;;;15.10;99.90;;;;;;4239863;27;20039;-69
2021/04/21 07:25:15;;;;;;;17.90;11.10;;;15.40;99.90;;;;;;4239489;27;20092;-68
2021/04/21 07:27:19;;;;;;;10.63;8.33;;;15.50;99.90;;;;;;4239061;27;20035;-66
2021/04/21 07:29:24;;;;;;;22.13;10.30;;;15.80;99.90;;;;;;4239015;27;20035;-64
2021/04/21 07:31:27;;;;;;;18.13;9.47;;;15.90;99.90;;;;;;4238965;27;20027;-61
2021/04/21 07:33:36;;;;;;;12.87;8.13;;;15.80;99.90;;;;;;4238661;27;20027;-66
2021/04/21 07:35:37;;;;;;;12.33;8.47;;;15.90;99.90;;;;;;4239321;27;20719;-65
2021/04/21 07:37:40;;;;;;;10.70;8.07;;;15.50;98.40;;;;;;4239048;27;20618;-62
2021/04/21 07:39:43;;;;;;;9.87;5.73;;;15.30;98.90;;;;;;4238361;27;20686;-69
2021/04/21 07:41:50;;;;;;;8.37;5.67;;;15.20;98.70;;;;;;4238341;27;20027;-66
2021/04/21 07:43:51;;;;;;;8.60;5.97;;;15.20;97.60;;;;;;4238532;27;20439;-65
2021/04/21 07:45:59;;;;;;;7.20;4.90;;;15.20;98.20;;;;;;4238815;27;20035;-68
2021/04/21 07:48:00;;;;;;;6.70;5.67;;;15.30;97.30;;;;;;4238419;27;20100;-63
2021/04/21 07:50:03;;;;;;;10.47;6.27;;;15.10;97.20;;;;;;4238381;27;20080;-65
2021/04/21 07:52:05;;;;;;;9.23;6.13;;;14.80;98.10;;;;;;4238957;27;20039;-67
2021/04/21 07:54:19;;;;;;;9.33;5.93;;;14.50;98.20;;;;;;4238665;28;20495;-68
2021/04/21 07:56:22;;;;;;;12.70;6.97;;;14.30;98.00;;;;;;4237922;28;20027;-67
2021/04/21 07:58:23;;;;;;;8.70;6.77;;;14.20;99.50;;;;;;4238557;28;20027;-67
2021/04/21 08:00:27;;;;;;;9.27;6.33;;;13.90;99.80;;;;;;4238436;27;20111;-60
2021/04/21 08:02:33;;;;;;;15.03;6.60;;;13.90;99.30;;;;;;4238518;28;20073;-67
2021/04/21 08:04:47;;;;;;;9.67;6.00;;;13.70;99.40;;;;;;4238663;28;20024;-66
2021/04/21 08:06:53;;;;;;;10.43;5.80;;;13.60;99.70;;;;;;4238262;28;20885;-64
2021/04/21 08:08:55;;;;;;;8.27;5.93;;;13.60;99.90;;;;;;4238524;27;20027;-68
2021/04/21 08:10:58;;;;;;;9.13;6.70;;;13.50;99.90;;;;;;4238325;27;20076;-66
2021/04/21 08:13:00;;;;;;;11.33;6.17;;;13.40;99.90;;;;;;4238804;27;20612;-63
2021/04/21 08:15:12;;;;;;;6.80;5.20;;;13.40;99.90;;;;;;4238452;28;20116;-63
2021/04/21 08:17:15;;;;;;;8.03;5.83;;;13.70;98.20;;;;;;4239174;27;20552;-66
2021/04/21 08:19:18;;;;;;;9.20;6.83;;;13.80;98.60;;;;;;4237016;27;20532;-63
2021/04/21 08:21:38;;;;;;;8.00;6.37;;;14.00;98.10;;;;;;4238192;27;20047;-69
2021/04/21 08:23:39;;;;;;;7.18;5.45;;;14.30;97.00;;;;;;4239216;27;20115;-68
2021/04/21 08:25:40;;;;;;;7.93;6.07;;;14.60;97.80;;;;;;4237840;27;20779;-65
2021/04/21 08:27:42;;;;;;;8.37;5.57;;;14.70;96.60;;;;;;4238698;28;20031;-61
2021/04/21 08:29:45;;;;;;;5.70;4.63;;;14.70;96.30;;;;;;4238340;27;20027;-62
2021/04/21 08:31:51;;;;;;;9.50;5.27;;;14.80;96.10;;;;;;4238677;27;20039;-66
2021/04/21 08:33:52;;;;;;;7.90;4.80;;;15.00;95.90;;;;;;4238356;28;20031;-68
2021/04/21 08:35:53;;;;;;;7.00;5.90;;;15.20;94.70;;;;;;4238000;28;20043;-69
2021/04/21 08:37:54;;;;;;;8.23;5.83;;;15.30;94.20;;;;;;4238405;28;20055;-62
2021/04/21 08:39:55;;;;;;;6.43;5.03;;;15.50;93.80;;;;;;4237468;28;20031;-64
2021/04/21 08:41:59;;;;;;;6.93;4.60;;;15.80;93.20;;;;;;4238144;28;20428;-68
2021/04/21 08:44:01;;;;;;;8.57;5.60;;;15.90;92.80;;;;;;4237836;28;20076;-63
2021/04/21 08:46:03;;;;;;;7.25;4.82;;;16.10;92.10;;;;;;4238144;28;20034;-64
2021/04/21 08:48:05;;;;;;;7.25;4.90;;;16.40;91.40;;;;;;4237792;28;20076;-67
2021/04/21 08:50:08;;;;;;;7.25;4.65;;;16.40;90.60;;;;;;4237974;27;20401;-66
2021/04/21 08:52:15;;;;;;;10.25;5.20;;;16.30;90.40;;;;;;4237879;27;20039;-68
2021/04/21 08:54:23;;;;;;;7.22;4.88;;;16.40;90.10;;;;;;4238611;27;20043;-62
2021/04/21 08:56:25;;;;;;;10.32;5.57;;;16.20;89.50;;;;;;4238112;28;20027;-67
2021/04/21 08:58:26;;;;;;;7.60;5.10;;;16.00;89.50;;;;;;4238051;28;20031;-66
2021/04/21 09:00:28;;;;;;;10.43;5.78;;;16.00;89.70;;;;;;4240326;27;20059;-61
2021/04/21 09:02:29;;;;;;;5.57;4.18;;;15.90;88.40;;;;;;4241110;27;20425;-65
2021/04/21 09:04:31;;;;;;;5.13;4.15;;;15.30;89.10;;;;;;4241136;27;20046;-62
2021/04/21 09:06:32;;;;;;;9.77;4.90;;;14.60;91.50;;;;;;4240961;27;20030;-62
2021/04/21 09:08:35;;;;;;;6.85;4.82;;;14.20;92.80;;;;;;4240690;27;20379;-67
2021/04/21 09:10:37;;;;;;;7.28;4.82;;;13.70;95.90;;;;;;4240667;27;20547;-61
2021/04/21 09:12:39;;;;;;;9.30;5.23;;;13.40;97.90;;;;;;4241278;27;20043;-67
2021/04/21 09:14:40;;;;;;;7.87;5.00;;;13.20;99.90;;;;;;4241208;27;20035;-66
2021/04/21 09:16:42;;;;;;;8.73;4.47;;;12.80;99.90;;;;;;4240955;27;20039;-67
2021/04/21 09:18:43;;;;;;;10.73;5.10;;;12.60;99.90;;;;;;4241001;27;20042;-67
2021/04/21 09:20:45;;;;;;;9.53;5.70;;;12.30;99.90;;;;;;4241096;27;20055;-67
2021/04/21 09:23:12;;;;;;;9.73;5.53;;;12.30;99.90;;;;;;4241539;27;20035;-64
2021/04/21 09:25:20;;;;;;;16.17;5.87;;;12.20;99.90;;;;;;4241067;27;20031;-61
2021/04/21 09:27:36;;;;;;;12.07;5.37;;;12.10;99.90;;;;;;4240441;27;20095;-66
2021/04/21 09:29:37;;;;;;;8.40;5.80;;;12.10;99.90;;;;;;4240414;27;20076;-63
2021/04/21 09:31:38;;;;;;;7.57;5.17;;;12.10;99.90;;;;;;4241058;27;20092;-68
2021/04/21 09:33:39;;;;;;;11.13;5.83;;;12.10;99.90;;;;;;4240653;27;20544;-62
2021/04/21 09:35:42;;;;;;;7.07;5.33;;;12.10;99.90;;;;;;4240667;27;20506;-66
2021/04/21 09:37:43;;;;;;;8.20;5.50;;;12.00;99.90;;;;;;4240477;27;20035;-66
2021/04/21 09:39:44;;;;;;;6.93;5.23;;;12.00;99.90;;;;;;4240764;27;20038;-66
2021/04/21 09:41:47;;;;;;;6.33;5.27;;;12.00;99.90;;;;;;4241227;27;20087;-70
2021/04/21 09:43:49;;;;;;;6.80;4.90;;;11.90;99.90;;;;;;4240521;27;20539;-66
2021/04/21 09:45:54;;;;;;;8.70;5.67;;;11.90;99.90;;;;;;4240717;27;20421;-64
2021/04/21 09:48:24;;;;;;;8.23;5.40;;;11.90;99.90;;;;;;4240544;27;20027;-67
2021/04/21 09:50:25;;;;;;;6.40;3.90;;;11.90;99.90;;;;;;4233212;27;20051;-68
2021/04/21 09:52:28;;;;;;;2.07;1.93;;;11.90;99.90;;;;;;4240598;27;20480;-67
2021/04/21 09:54:37;;;;;;;3.33;2.10;;;11.90;99.90;;;;;;4240230;27;20104;-65
2021/04/21 09:56:38;;;;;;;2.23;2.03;;;12.00;99.90;;;;;;4239981;27;20103;-63
2021/04/21 09:59:01;;;;;;;2.63;2.43;;;11.90;99.90;;;;;;4240472;27;20088;-67
2021/04/21 10:01:20;;;;;;;3.08;1.98;;;12.00;99.90;;;;;;4239799;27;20096;-69
2021/04/21 10:03:21;;;;;;;3.70;2.83;;;12.00;99.90;;;;;;4238574;27;20471;-62
2021/04/21 10:05:35;;;;;;;3.77;2.80;;;11.80;99.90;;;;;;4239816;27;20088;-66
2021/04/21 10:07:37;;;;;;;3.93;3.17;;;11.50;99.90;;;;;;4239567;27;20019;-67
2021/04/21 10:09:38;;;;;;;4.73;3.67;;;11.20;99.90;;;;;;4240043;27;20039;-66
2021/04/21 10:11:39;;;;;;;6.70;3.77;;;10.80;99.90;;;;;;4239993;27;20046;-66
2021/04/21 10:13:44;;;;;;;6.33;3.90;;;10.60;99.90;;;;;;4240395;27;20027;-58
2021/04/21 10:15:49;;;;;;;15.23;5.37;;;10.30;99.90;;;;;;4239983;27;20429;-62
2021/04/21 10:17:50;;;;;;;7.30;4.00;;;10.10;99.90;;;;;;4238963;27;20527;-65
2021/04/21 10:19:52;;;;;;;5.17;3.60;;;9.80;99.90;;;;;;4240007;27;20031;-66
2021/04/21 10:21:53;;;;;;;6.97;3.90;;;9.40;99.90;;;;;;4240246;27;20039;-65
2021/04/21 10:23:55;;;;;;;10.70;3.60;;;9.00;99.90;;;;;;4240235;27;20499;-67
2021/04/21 10:26:04;;;;;;;5.43;3.37;;;8.80;99.90;;;;;;4240796;27;20043;-67
2021/04/21 10:28:05;;;;;;;3.07;2.70;;;8.60;99.90;;;;;;4240130;27;20677;-68
2021/04/21 10:30:08;;;;;;;3.93;2.13;;;8.60;99.90;;;;;;4239960;27;20035;-67
2021/04/21 10:32:11;;;;;;;2.60;2.17;;;8.70;99.90;;;;;;4240181;27;20484;-70
2021/04/21 10:34:14;;;;;;;3.13;2.00;;;8.70;99.90;;;;;;4240001;27;20051;-69
2021/04/21 10:36:15;;;;;;;2.83;2.40;;;8.70;99.90;;;;;;4239420;27;20027;-60
2021/04/21 10:38:20;;;;;;;3.33;2.93;;;8.80;99.90;;;;;;4239654;27;20040;-59
2021/04/21 10:40:28;;;;;;;4.70;3.17;;;8.80;99.90;;;;;;4239559;27;20500;-63
2021/04/21 10:42:29;;;;;;;4.67;2.20;;;9.00;99.90;;;;;;4239915;27;20035;-67
2021/04/21 10:44:31;;;;;;;5.37;2.73;;;9.00;99.90;;;;;;4239652;27;20031;-68
2021/04/21 10:46:51;;;;;;;5.43;2.80;;;9.00;99.90;;;;;;4239719;27;20052;-67
2021/04/21 10:48:53;;;;;;;3.67;2.95;;;9.00;99.90;;;;;;4239247;27;20036;-67
2021/04/21 10:50:54;;;;;;;4.70;3.20;;;8.80;99.90;;;;;;4239268;27;20043;-70
2021/04/21 10:52:55;;;;;;;4.17;2.97;;;8.70;99.90;;;;;;4239624;27;20035;-69
2021/04/21 10:54:57;;;;;;;4.20;3.10;;;8.60;99.90;;;;;;4239572;27;20031;-69
2021/04/21 10:57:20;;;;;;;8.93;4.00;;;8.60;99.90;;;;;;4239236;27;20016;-69
2021/04/21 10:59:21;;;;;;;4.00;2.90;;;8.50;99.90;;;;;;4239455;27;20043;-66